Time;durP1;ratioP1;P1;durP2;ratioP2;P2;SDS_P1;SDS_P2;PMS_P1;PMS_P2;Temp;Humidity;BMP_temperature;BMP_pressure;BME280_temperature;BME280_humidity;BME280_pressure;Samples;Min_cycle;Max_cycle;Signal;HPM_P1;HPM_P2
2024/01/06 00:01:53;;;;;;;207.68;195.48;;;7.50;99.90;;;;;;4989270;28;20042;-73
2024/01/06 00:04:19;;;;;;;165.32;155.85;;;7.60;99.90;;;;;;4990043;28;20038;-73
2024/01/06 00:06:45;;;;;;;182.18;171.65;;;7.50;99.90;;;;;;4989910;28;20042;-74
2024/01/06 00:09:11;;;;;;;169.07;159.18;;;7.50;99.90;;;;;;4989865;28;20042;-73
2024/01/06 00:11:37;;;;;;;186.40;175.55;;;7.50;99.90;;;;;;4990686;28;20045;-73
2024/01/06 00:14:03;;;;;;;158.07;148.93;;;7.60;99.90;;;;;;4993445;28;20388;-73
2024/01/06 00:16:29;;;;;;;199.65;188.07;;;7.50;99.90;;;;;;4993008;28;20042;-73
2024/01/06 00:18:55;;;;;;;205.83;194.47;;;7.60;99.90;;;;;;4993639;28;20400;-73
2024/01/06 00:21:21;;;;;;;214.45;202.38;;;7.60;99.90;;;;;;4992941;28;20046;-73
2024/01/06 00:23:47;;;;;;;244.77;231.02;;;7.60;99.90;;;;;;4993128;28;20396;-73
2024/01/06 00:26:13;;;;;;;275.40;259.45;;;7.70;99.90;;;;;;4993332;28;20031;-73
2024/01/06 00:28:40;;;;;;;288.80;272.07;;;7.70;99.90;;;;;;4993255;28;20427;-73
2024/01/06 00:31:06;;;;;;;259.92;245.18;;;7.70;99.90;;;;;;4992815;28;20036;-73
2024/01/06 00:33:32;;;;;;;343.93;323.23;;;7.80;99.90;;;;;;4993178;28;20030;-73
2024/01/06 00:35:58;;;;;;;313.67;295.00;;;7.70;99.90;;;;;;4993078;28;20457;-73
2024/01/06 00:38:24;;;;;;;432.33;405.33;;;7.70;99.90;;;;;;4993338;28;20041;-73
2024/01/06 00:40:50;;;;;;;351.52;331.17;;;7.60;99.90;;;;;;4993184;28;20054;-73
2024/01/06 00:43:17;;;;;;;261.17;246.30;;;7.40;99.90;;;;;;4992797;28;20416;-73
2024/01/06 00:45:43;;;;;;;203.25;191.77;;;7.30;99.90;;;;;;4992735;28;20039;-73
2024/01/06 00:48:09;;;;;;;225.07;212.25;;;7.10;99.90;;;;;;4993128;28;20511;-73
2024/01/06 00:50:35;;;;;;;220.80;208.50;;;7.10;99.90;;;;;;4993035;28;20026;-73
2024/01/06 00:53:01;;;;;;;215.37;203.03;;;7.20;99.90;;;;;;4992944;28;20038;-73
2024/01/06 00:55:27;;;;;;;211.73;199.53;;;7.20;99.90;;;;;;4993240;28;20029;-73
2024/01/06 00:57:53;;;;;;;186.43;175.17;;;7.10;99.90;;;;;;4992848;28;20031;-74
2024/01/06 01:00:19;;;;;;;208.10;196.13;;;7.10;99.90;;;;;;4992659;28;20461;-74
2024/01/06 01:02:45;;;;;;;227.75;214.35;;;7.10;99.90;;;;;;4992755;28;20038;-73
2024/01/06 01:05:12;;;;;;;236.25;222.40;;;7.10;99.90;;;;;;4992384;28;20033;-74
2024/01/06 01:07:38;;;;;;;208.47;196.03;;;7.10;99.90;;;;;;4992756;28;20034;-73
2024/01/06 01:10:05;;;;;;;200.03;188.10;;;7.00;99.90;;;;;;4992440;28;20042;-73
2024/01/06 01:12:31;;;;;;;227.73;214.18;;;6.90;99.90;;;;;;4992574;28;20026;-73
2024/01/06 01:14:57;;;;;;;190.33;179.10;;;6.80;99.90;;;;;;4991013;28;20042;-73
2024/01/06 01:17:24;;;;;;;208.97;196.53;;;6.80;99.90;;;;;;4992347;28;20037;-73
2024/01/06 01:19:50;;;;;;;176.27;166.00;;;6.70;99.90;;;;;;4992120;28;20408;-75
2024/01/06 01:22:16;;;;;;;166.00;156.43;;;6.70;99.90;;;;;;4992429;28;20046;-75
2024/01/06 01:24:42;;;;;;;182.40;171.63;;;6.80;99.90;;;;;;4992247;28;20034;-73
2024/01/06 01:27:08;;;;;;;155.40;146.60;;;6.90;99.90;;;;;;4991498;28;20046;-73
2024/01/06 01:29:35;;;;;;;196.60;185.80;;;6.90;99.90;;;;;;4992185;28;20046;-73
2024/01/06 01:32:01;;;;;;;204.87;193.50;;;6.80;99.90;;;;;;4990842;28;20040;-72
2024/01/06 01:34:27;;;;;;;225.73;212.77;;;6.80;99.90;;;;;;4992009;28;20045;-73
2024/01/06 01:36:53;;;;;;;248.60;234.73;;;6.90;99.90;;;;;;4992273;28;20384;-73
2024/01/06 01:39:19;;;;;;;376.27;353.20;;;6.90;99.90;;;;;;4990991;28;21458;-72
2024/01/06 01:41:45;;;;;;;369.13;346.70;;;7.00;99.90;;;;;;4992232;28;20388;-73
2024/01/06 01:44:12;;;;;;;297.83;280.65;;;7.00;99.90;;;;;;4990563;28;20500;-72
2024/01/06 01:46:39;;;;;;;295.20;276.97;;;7.00;99.90;;;;;;4991782;28;20065;-73
2024/01/06 01:49:05;;;;;;;279.42;263.00;;;7.00;99.90;;;;;;4991144;28;20059;-73
2024/01/06 01:51:34;;;;;;;315.10;296.83;;;7.10;99.90;;;;;;4990760;28;20546;-72
2024/01/06 01:54:01;;;;;;;302.13;284.27;;;7.20;99.90;;;;;;4991925;28;20034;-72
2024/01/06 01:56:27;;;;;;;331.23;311.57;;;7.20;99.90;;;;;;4992021;28;20034;-73
2024/01/06 01:58:53;;;;;;;313.57;295.00;;;7.20;99.90;;;;;;4990745;28;20043;-72
2024/01/06 02:01:19;;;;;;;327.00;307.70;;;7.30;99.90;;;;;;4991314;28;20049;-72
2024/01/06 02:03:45;;;;;;;339.77;319.47;;;7.30;99.90;;;;;;4990202;28;20042;-72
2024/01/06 02:06:12;;;;;;;361.13;338.47;;;7.30;99.90;;;;;;4990023;28;20133;-72
2024/01/06 02:08:38;;;;;;;315.97;296.43;;;7.30;99.90;;;;;;4991446;28;20050;-72
2024/01/06 02:11:04;;;;;;;291.20;272.53;;;7.40;99.90;;;;;;4991659;28;20038;-72
2024/01/06 02:13:35;;;;;;;308.43;289.63;;;7.30;99.90;;;;;;4990528;28;20042;-72
2024/01/06 02:16:02;;;;;;;316.63;296.67;;;7.30;99.90;;;;;;4990247;28;20053;-72
2024/01/06 02:18:28;;;;;;;306.30;288.20;;;7.40;99.90;;;;;;4985476;28;20033;-72
2024/01/06 02:20:59;;;;;;;306.17;287.50;;;7.40;99.90;;;;;;4961404;28;20039;-72
2024/01/06 02:23:26;;;;;;;283.63;266.08;;;7.40;99.90;;;;;;4991276;28;20042;-72
2024/01/06 02:25:52;;;;;;;241.27;226.30;;;7.40;99.90;;;;;;4991281;28;20034;-72
2024/01/06 02:28:18;;;;;;;181.67;170.13;;;7.40;99.90;;;;;;4990521;28;20619;-72
2024/01/06 02:30:44;;;;;;;177.25;165.82;;;7.40;99.90;;;;;;4990485;28;20054;-72
2024/01/06 02:33:10;;;;;;;151.35;142.05;;;7.40;99.90;;;;;;4991276;28;20069;-72
2024/01/06 02:35:37;;;;;;;130.73;122.63;;;7.40;99.90;;;;;;4989465;28;20046;-72
2024/01/06 02:38:03;;;;;;;222.70;209.67;;;7.40;99.90;;;;;;4990272;28;20488;-72
2024/01/06 02:40:29;;;;;;;292.25;275.55;;;7.40;99.90;;;;;;4990989;28;20069;-72
2024/01/06 02:42:55;;;;;;;371.00;348.98;;;7.40;99.90;;;;;;4990596;28;20035;-72
2024/01/06 02:45:21;;;;;;;450.10;421.85;;;7.40;99.90;;;;;;4990402;28;20030;-73
2024/01/06 02:47:47;;;;;;;339.60;319.00;;;7.40;99.90;;;;;;4990638;28;20046;-73
2024/01/06 02:50:13;;;;;;;221.32;208.07;;;7.40;99.90;;;;;;4990319;28;20039;-72
2024/01/06 02:52:39;;;;;;;251.07;237.10;;;7.40;99.90;;;;;;4990530;28;20057;-73
2024/01/06 02:55:06;;;;;;;162.50;153.68;;;7.30;99.90;;;;;;4989208;28;20050;-73
2024/01/06 02:57:32;;;;;;;156.97;148.60;;;7.30;99.90;;;;;;4990488;28;20049;-72
2024/01/06 02:59:58;;;;;;;204.23;193.13;;;7.30;99.90;;;;;;4990273;28;20046;-72
2024/01/06 03:02:24;;;;;;;332.73;312.73;;;7.10;99.90;;;;;;4989033;27;20034;-73
2024/01/06 03:04:50;;;;;;;182.35;172.32;;;7.00;99.90;;;;;;4986406;28;20054;-74
2024/01/06 03:07:16;;;;;;;172.87;163.33;;;6.90;99.90;;;;;;4999258;28;20042;-73
2024/01/06 03:09:42;;;;;;;185.27;175.27;;;6.90;99.90;;;;;;5052409;28;20044;-74
2024/01/06 03:12:09;;;;;;;167.63;157.95;;;6.90;99.90;;;;;;4997685;28;20037;-74
2024/01/06 03:14:35;;;;;;;176.93;167.67;;;6.80;99.90;;;;;;4987580;28;20038;-74
2024/01/06 03:17:02;;;;;;;194.03;183.37;;;6.80;99.90;;;;;;4988732;28;20220;-74
2024/01/06 03:19:29;;;;;;;170.50;161.32;;;6.80;99.90;;;;;;4988758;28;20065;-73
2024/01/06 03:21:55;;;;;;;181.73;171.37;;;6.60;99.90;;;;;;4987806;28;20050;-73
2024/01/06 03:24:22;;;;;;;167.40;157.70;;;6.60;99.90;;;;;;4989158;28;20041;-73
2024/01/06 03:26:48;;;;;;;172.73;162.77;;;6.60;99.90;;;;;;4988972;28;20408;-73
2024/01/06 03:29:14;;;;;;;155.77;147.43;;;6.60;99.90;;;;;;4988608;28;20057;-73
2024/01/06 03:31:44;;;;;;;177.57;167.93;;;6.70;99.90;;;;;;4988660;28;20137;-74
2024/01/06 03:34:11;;;;;;;156.80;148.07;;;6.70;99.90;;;;;;4987315;28;20042;-74
2024/01/06 03:36:37;;;;;;;185.37;175.17;;;6.70;99.90;;;;;;4989237;28;20045;-73
2024/01/06 03:39:04;;;;;;;152.27;143.83;;;6.80;99.90;;;;;;4990056;28;20041;-73
2024/01/06 03:41:30;;;;;;;193.07;182.50;;;6.80;99.90;;;;;;4991945;28;20050;-73
2024/01/06 03:43:56;;;;;;;166.00;156.55;;;6.80;99.90;;;;;;4990028;28;20039;-73
2024/01/06 03:46:22;;;;;;;154.38;145.85;;;6.80;99.90;;;;;;4989015;27;20049;-73
2024/01/06 03:48:49;;;;;;;165.43;156.30;;;6.70;99.90;;;;;;4990333;28;20054;-73
2024/01/06 03:51:15;;;;;;;191.53;181.03;;;6.70;99.90;;;;;;4990147;28;20038;-73
2024/01/06 03:53:41;;;;;;;190.45;180.15;;;6.80;99.90;;;;;;4989803;28;20042;-73
2024/01/06 03:56:07;;;;;;;144.20;135.67;;;6.90;99.90;;;;;;4990110;28;20042;-72
2024/01/06 03:58:33;;;;;;;139.40;131.70;;;7.00;99.90;;;;;;4989715;28;20046;-73
2024/01/06 04:00:59;;;;;;;129.23;121.87;;;7.00;99.90;;;;;;4989461;28;20030;-73
2024/01/06 04:03:25;;;;;;;127.18;120.05;;;7.00;99.90;;;;;;4990365;28;20061;-73
2024/01/06 04:05:52;;;;;;;119.13;112.65;;;6.90;99.90;;;;;;4990205;28;20041;-74
2024/01/06 04:08:18;;;;;;;122.53;115.50;;;6.80;99.90;;;;;;4989526;28;20042;-74
2024/01/06 04:10:44;;;;;;;133.20;125.23;;;6.90;99.90;;;;;;4988400;28;20050;-75
2024/01/06 04:13:11;;;;;;;125.63;118.37;;;7.00;99.90;;;;;;4989342;28;20038;-74
2024/01/06 04:15:37;;;;;;;164.30;155.07;;;7.00;99.90;;;;;;4989488;28;20053;-74
2024/01/06 04:18:04;;;;;;;170.00;160.88;;;7.10;99.90;;;;;;4989656;28;20049;-74
2024/01/06 04:20:30;;;;;;;202.37;190.73;;;7.10;99.90;;;;;;4989399;28;20061;-74
2024/01/06 04:22:56;;;;;;;200.57;189.43;;;7.10;99.90;;;;;;4989617;28;20035;-75
2024/01/06 04:25:22;;;;;;;169.70;160.13;;;7.10;99.90;;;;;;4990028;28;20539;-74
2024/01/06 04:27:49;;;;;;;178.53;168.67;;;7.10;99.90;;;;;;4989122;28;20027;-74
2024/01/06 04:30:15;;;;;;;185.52;175.20;;;7.10;99.90;;;;;;4988695;28;20050;-74
2024/01/06 04:32:42;;;;;;;171.43;162.00;;;7.10;99.90;;;;;;4989567;28;20038;-74
2024/01/06 04:35:08;;;;;;;181.63;171.55;;;7.00;99.90;;;;;;4989655;28;20038;-74
2024/01/06 04:37:34;;;;;;;180.90;170.93;;;7.10;99.90;;;;;;4988025;28;20027;-74
2024/01/06 04:40:01;;;;;;;190.13;179.50;;;7.10;99.90;;;;;;4987741;28;20057;-75
2024/01/06 04:42:27;;;;;;;159.93;150.95;;;7.00;99.90;;;;;;4988622;28;20046;-74
2024/01/06 04:44:53;;;;;;;171.48;162.00;;;7.00;99.90;;;;;;4989526;28;20037;-74
2024/01/06 04:47:19;;;;;;;188.93;178.33;;;7.00;99.90;;;;;;4987692;28;20042;-74
2024/01/06 04:49:45;;;;;;;180.55;170.63;;;7.10;99.90;;;;;;4989261;28;20042;-75
2024/01/06 04:52:11;;;;;;;188.17;177.17;;;7.00;99.90;;;;;;4989356;28;20034;-74
2024/01/06 04:54:37;;;;;;;197.00;185.73;;;6.90;99.90;;;;;;4989455;28;20380;-75
2024/01/06 04:57:04;;;;;;;213.15;200.45;;;6.80;99.90;;;;;;4988956;28;20038;-75
2024/01/06 04:59:30;;;;;;;216.75;204.80;;;6.80;99.90;;;;;;4992641;28;20038;-74
2024/01/06 05:01:57;;;;;;;192.68;182.27;;;6.80;99.90;;;;;;4992239;28;20046;-74
2024/01/06 05:04:23;;;;;;;209.30;197.43;;;6.90;99.90;;;;;;4991613;28;20034;-74
2024/01/06 05:06:51;;;;;;;163.93;154.60;;;6.90;99.90;;;;;;4992787;28;20034;-74
2024/01/06 05:09:17;;;;;;;153.35;145.18;;;6.90;99.90;;;;;;4990846;28;20400;-75
2024/01/06 05:11:44;;;;;;;171.52;162.35;;;6.90;99.90;;;;;;4991972;28;20381;-75
2024/01/06 05:14:10;;;;;;;173.68;163.63;;;6.90;99.90;;;;;;5011924;28;20053;-74
2024/01/06 05:16:37;;;;;;;180.10;170.00;;;6.80;99.90;;;;;;4999600;28;20034;-75
2024/01/06 05:19:03;;;;;;;172.50;163.35;;;6.90;99.90;;;;;;4992076;28;20042;-74
2024/01/06 05:21:29;;;;;;;183.48;173.60;;;6.80;99.90;;;;;;4992217;28;20481;-72
2024/01/06 05:23:55;;;;;;;170.00;160.65;;;6.80;99.90;;;;;;4990852;28;20039;-73
2024/01/06 05:26:22;;;;;;;208.38;197.20;;;6.80;99.90;;;;;;4992415;28;20391;-73
2024/01/06 05:28:48;;;;;;;200.53;189.70;;;6.80;99.90;;;;;;4992038;28;20050;-73
2024/01/06 05:31:14;;;;;;;216.38;204.88;;;6.90;99.90;;;;;;4991890;28;20042;-73
2024/01/06 05:33:40;;;;;;;235.85;202.73;;;6.90;99.90;;;;;;4992425;28;20033;-74
2024/01/06 05:36:07;;;;;;;195.13;184.40;;;6.90;99.90;;;;;;4991249;28;20030;-72
2024/01/06 05:38:33;;;;;;;186.80;176.45;;;6.90;99.90;;;;;;4987319;28;20477;-73
2024/01/06 05:40:59;;;;;;;204.07;192.73;;;6.90;99.90;;;;;;4991693;28;20053;-73
2024/01/06 05:43:25;;;;;;;176.63;166.63;;;6.90;99.90;;;;;;4992287;28;20038;-73
2024/01/06 05:45:51;;;;;;;125.60;118.47;;;7.00;99.90;;;;;;4991509;28;20144;-73
2024/01/06 05:48:17;;;;;;;207.77;196.68;;;6.90;99.90;;;;;;4992085;28;20041;-73
2024/01/06 05:50:43;;;;;;;177.80;168.20;;;6.90;99.90;;;;;;4992141;28;20045;-73
2024/01/06 05:53:10;;;;;;;155.95;147.52;;;7.00;99.90;;;;;;4992203;28;20038;-73
2024/01/06 05:55:36;;;;;;;238.70;225.20;;;7.00;99.90;;;;;;4991560;28;20448;-73
2024/01/06 05:58:02;;;;;;;171.80;162.00;;;7.00;99.90;;;;;;4992013;28;20488;-73
2024/01/06 06:00:31;;;;;;;154.10;144.95;;;6.90;99.90;;;;;;4990306;28;20035;-73
2024/01/06 06:02:58;;;;;;;153.43;144.20;;;6.90;99.90;;;;;;4990111;28;20499;-74
2024/01/06 06:05:24;;;;;;;112.35;106.03;;;6.90;99.90;;;;;;4991729;28;20031;-72
2024/01/06 06:07:50;;;;;;;151.00;142.70;;;6.90;99.90;;;;;;4991560;28;20042;-73
2024/01/06 06:10:18;;;;;;;144.60;136.60;;;6.90;99.90;;;;;;4988413;28;20527;-72
2024/01/06 06:12:44;;;;;;;166.85;157.15;;;6.90;99.90;;;;;;4990567;28;20054;-73
2024/01/06 06:15:10;;;;;;;90.57;85.47;;;6.90;99.90;;;;;;4990498;28;20057;-72
2024/01/06 06:17:36;;;;;;;128.23;120.78;;;6.90;99.90;;;;;;4991769;28;20453;-73
2024/01/06 06:20:03;;;;;;;159.70;151.20;;;6.80;99.90;;;;;;4993059;28;20038;-73
2024/01/06 06:22:32;;;;;;;248.97;234.63;;;6.90;99.90;;;;;;4990943;28;20043;-75
2024/01/06 06:25:01;;;;;;;127.22;120.35;;;6.90;99.90;;;;;;4990924;28;20477;-75
2024/01/06 06:27:27;;;;;;;89.93;85.03;;;6.90;99.90;;;;;;4989752;28;20497;-74
2024/01/06 06:29:54;;;;;;;206.97;194.33;;;6.90;99.90;;;;;;4991011;28;20049;-74
2024/01/06 06:32:20;;;;;;;215.88;203.77;;;6.90;99.90;;;;;;4989198;28;20034;-74
2024/01/06 06:34:46;;;;;;;213.43;200.80;;;6.90;99.90;;;;;;4990787;28;20045;-75
2024/01/06 06:37:12;;;;;;;278.13;261.75;;;6.80;99.90;;;;;;4990438;28;20449;-74
2024/01/06 06:39:38;;;;;;;290.02;272.90;;;6.80;99.90;;;;;;4989531;28;20053;-75
2024/01/06 06:42:04;;;;;;;193.77;182.60;;;6.80;99.90;;;;;;4990885;28;20041;-75
2024/01/06 06:44:30;;;;;;;183.05;172.38;;;6.80;99.90;;;;;;4991085;28;20464;-75
2024/01/06 06:46:56;;;;;;;175.07;165.27;;;6.90;99.90;;;;;;4990174;27;20038;-72
2024/01/06 06:49:23;;;;;;;232.43;218.68;;;6.90;99.90;;;;;;4990913;28;20042;-73
2024/01/06 06:51:49;;;;;;;225.63;212.32;;;7.00;99.90;;;;;;4990362;28;20041;-72
2024/01/06 06:54:15;;;;;;;257.00;241.20;;;7.00;99.90;;;;;;4988975;28;20042;-72
2024/01/06 06:56:45;;;;;;;205.93;193.68;;;7.00;99.90;;;;;;4991033;28;20034;-72
2024/01/06 06:59:11;;;;;;;270.02;253.60;;;7.00;99.90;;;;;;4989721;28;20031;-75
2024/01/06 07:01:37;;;;;;;243.00;228.27;;;7.00;99.90;;;;;;4990155;27;20053;-72
2024/01/06 07:04:04;;;;;;;238.00;223.97;;;7.00;99.90;;;;;;4990336;28;20039;-72
2024/01/06 07:06:30;;;;;;;268.43;252.70;;;7.10;99.90;;;;;;4990381;28;20042;-74
2024/01/06 07:08:57;;;;;;;404.80;380.05;;;7.10;99.90;;;;;;4990244;28;20404;-74
2024/01/06 07:11:23;;;;;;;368.55;346.63;;;7.00;99.90;;;;;;4989565;28;20046;-74
2024/01/06 07:13:50;;;;;;;301.23;283.57;;;6.90;99.90;;;;;;4989383;28;20035;-74
2024/01/06 07:16:16;;;;;;;295.37;278.70;;;6.90;99.90;;;;;;4988237;28;20034;-72
2024/01/06 07:18:42;;;;;;;329.67;310.13;;;6.80;99.90;;;;;;4990304;28;20031;-72
2024/01/06 07:21:08;;;;;;;334.25;314.38;;;6.80;99.90;;;;;;4989164;28;20045;-74
2024/01/06 07:23:34;;;;;;;322.73;303.37;;;6.80;99.90;;;;;;4988652;28;20041;-74
2024/01/06 07:26:00;;;;;;;249.70;235.55;;;6.80;99.90;;;;;;4989355;28;20062;-73
2024/01/06 07:28:26;;;;;;;306.98;289.38;;;6.70;99.90;;;;;;4990366;28;20022;-73
2024/01/06 07:30:52;;;;;;;244.63;230.50;;;6.70;99.90;;;;;;4993053;28;20066;-72
2024/01/06 07:33:19;;;;;;;232.63;219.17;;;6.80;99.90;;;;;;5000339;28;20030;-73
2024/01/06 07:35:45;;;;;;;231.15;217.85;;;6.70;99.90;;;;;;5009842;28;20396;-72
2024/01/06 07:38:12;;;;;;;210.15;198.38;;;6.80;99.90;;;;;;5011664;28;20476;-73
2024/01/06 07:40:38;;;;;;;253.07;238.27;;;6.80;99.90;;;;;;4994253;28;20043;-73
2024/01/06 07:43:04;;;;;;;184.88;174.55;;;6.80;99.90;;;;;;4988984;28;20052;-72
2024/01/06 07:45:31;;;;;;;226.77;214.03;;;6.80;99.90;;;;;;4989013;28;20042;-71
2024/01/06 07:48:00;;;;;;;179.18;169.23;;;6.80;99.90;;;;;;4989325;28;20042;-73
2024/01/06 07:50:27;;;;;;;218.60;206.75;;;6.70;99.90;;;;;;4988596;28;20039;-73
2024/01/06 07:52:54;;;;;;;193.43;183.23;;;6.80;99.90;;;;;;4991346;28;20476;-73
2024/01/06 07:55:20;;;;;;;119.33;112.90;;;6.70;99.90;;;;;;4986805;28;20038;-71
2024/01/06 07:57:46;;;;;;;161.80;153.35;;;6.70;99.90;;;;;;4990074;28;20038;-71
2024/01/06 08:00:16;;;;;;;188.33;176.73;;;6.80;99.90;;;;;;4989356;28;20038;-71
2024/01/06 08:02:42;;;;;;;202.93;190.95;;;6.80;99.90;;;;;;4989804;28;20042;-71
2024/01/06 08:05:08;;;;;;;210.82;199.00;;;6.70;99.90;;;;;;4989424;28;20393;-72
2024/01/06 08:07:34;;;;;;;197.40;185.30;;;6.70;99.90;;;;;;4989141;28;20034;-72
2024/01/06 08:10:00;;;;;;;158.37;149.53;;;6.60;99.90;;;;;;4989002;28;20050;-72
2024/01/06 08:12:26;;;;;;;172.60;163.18;;;6.60;99.90;;;;;;4989993;28;20035;-72
2024/01/06 08:14:53;;;;;;;138.77;130.52;;;6.70;99.90;;;;;;4990069;28;20034;-72
2024/01/06 08:17:19;;;;;;;205.90;193.07;;;6.70;99.90;;;;;;4989367;28;20491;-71
2024/01/06 08:19:47;;;;;;;146.70;138.45;;;6.50;99.90;;;;;;4989429;28;20049;-71
2024/01/06 08:22:13;;;;;;;155.37;146.53;;;6.50;99.90;;;;;;4989466;28;20417;-73
2024/01/06 08:24:39;;;;;;;182.80;171.48;;;6.60;99.90;;;;;;4988825;28;20034;-73
2024/01/06 08:27:05;;;;;;;226.90;213.00;;;6.60;99.90;;;;;;4989412;28;20031;-73
2024/01/06 08:29:31;;;;;;;236.27;222.35;;;6.50;99.90;;;;;;4989466;28;20409;-74
2024/01/06 08:31:58;;;;;;;234.43;220.10;;;6.50;99.90;;;;;;4987990;28;20042;-74
2024/01/06 08:34:24;;;;;;;279.77;262.13;;;6.50;99.90;;;;;;4991494;28;20061;-74
2024/01/06 08:36:50;;;;;;;246.23;231.18;;;6.50;99.90;;;;;;4992985;28;20037;-74
2024/01/06 08:39:16;;;;;;;192.13;180.20;;;6.60;99.90;;;;;;4992806;28;20041;-74
2024/01/06 08:41:42;;;;;;;264.07;247.63;;;6.60;99.90;;;;;;4992963;28;20034;-74
2024/01/06 08:44:09;;;;;;;273.50;256.93;;;6.60;99.90;;;;;;4992843;28;20037;-73
2024/01/06 08:46:35;;;;;;;279.15;261.85;;;6.60;99.90;;;;;;4992082;28;20046;-72
2024/01/06 08:49:01;;;;;;;247.18;231.80;;;6.70;99.90;;;;;;4992614;28;20030;-72
2024/01/06 08:51:27;;;;;;;152.00;143.10;;;6.70;99.90;;;;;;4992867;28;20042;-72
2024/01/06 08:53:53;;;;;;;195.02;183.60;;;6.90;99.90;;;;;;4992644;28;20030;-73
2024/01/06 08:56:20;;;;;;;300.38;281.33;;;6.90;99.90;;;;;;4992102;28;20038;-72
2024/01/06 08:58:46;;;;;;;321.33;301.65;;;6.90;99.90;;;;;;4992623;28;20503;-72
2024/01/06 09:01:13;;;;;;;268.08;251.95;;;7.00;99.90;;;;;;4991528;27;20039;-73
2024/01/06 09:03:39;;;;;;;296.15;278.38;;;7.00;99.90;;;;;;4990682;28;20049;-72
2024/01/06 09:06:05;;;;;;;291.38;273.85;;;7.00;99.90;;;;;;4992877;28;20053;-72
2024/01/06 09:08:31;;;;;;;132.52;125.32;;;7.10;99.90;;;;;;4992481;28;20030;-71
2024/01/06 09:10:58;;;;;;;164.80;156.00;;;7.00;99.90;;;;;;4991336;28;20045;-72
2024/01/06 09:13:24;;;;;;;224.07;212.13;;;7.00;99.90;;;;;;4991904;28;20685;-72
2024/01/06 09:15:51;;;;;;;179.55;170.15;;;6.90;99.90;;;;;;4991020;28;20038;-71
2024/01/06 09:18:17;;;;;;;146.80;139.13;;;6.90;99.90;;;;;;4990448;28;20061;-72
2024/01/06 09:20:43;;;;;;;172.10;162.55;;;6.90;99.90;;;;;;4990682;28;20027;-71
2024/01/06 09:23:12;;;;;;;300.20;282.40;;;7.00;99.90;;;;;;4991244;28;20503;-71
2024/01/06 09:25:39;;;;;;;348.45;326.92;;;7.10;99.90;;;;;;4990577;28;20023;-72
2024/01/06 09:28:06;;;;;;;154.38;146.02;;;7.30;99.90;;;;;;4990320;28;20050;-72
2024/01/06 09:30:32;;;;;;;335.08;315.58;;;7.30;99.90;;;;;;4990745;27;20486;-75
2024/01/06 09:32:58;;;;;;;246.65;233.60;;;7.30;99.90;;;;;;4991403;28;20026;-75
2024/01/06 09:35:24;;;;;;;219.95;208.38;;;7.40;99.90;;;;;;4991286;28;20034;-75
2024/01/06 09:37:50;;;;;;;414.17;389.48;;;7.50;99.90;;;;;;4991423;28;20030;-75
2024/01/06 09:40:24;;;;;;;330.67;311.77;;;7.50;99.90;;;;;;4991756;28;20059;-75
2024/01/06 09:42:50;;;;;;;317.48;299.08;;;7.50;99.90;;;;;;4991898;28;20047;-73
2024/01/06 09:45:16;;;;;;;320.90;302.25;;;7.50;99.90;;;;;;4989390;28;20035;-75
2024/01/06 09:47:43;;;;;;;330.02;310.60;;;7.50;99.90;;;;;;4990312;28;20041;-76
2024/01/06 09:50:09;;;;;;;333.55;314.10;;;7.50;99.90;;;;;;4990566;28;20384;-75
2024/01/06 09:52:43;;;;;;;462.55;433.65;;;7.50;99.90;;;;;;4992139;28;20039;-76
2024/01/06 09:55:11;;;;;;;353.17;331.77;;;7.50;99.90;;;;;;4991699;28;20046;-76
2024/01/06 09:57:37;;;;;;;312.33;294.23;;;7.60;99.90;;;;;;4985172;28;20043;-75
2024/01/06 10:00:04;;;;;;;539.97;502.73;;;7.60;99.90;;;;;;4970279;28;20035;-72
2024/01/06 10:02:31;;;;;;;405.27;381.17;;;7.60;99.90;;;;;;4991356;28;20034;-76
2024/01/06 10:04:58;;;;;;;438.90;412.15;;;7.60;99.90;;;;;;4991636;28;20465;-76
2024/01/06 10:07:26;;;;;;;384.67;361.63;;;7.70;99.90;;;;;;4991613;28;20401;-76
2024/01/06 10:09:54;;;;;;;542.35;507.27;;;7.70;99.90;;;;;;4991438;28;20377;-76
2024/01/06 10:12:25;;;;;;;286.52;271.90;;;7.80;99.90;;;;;;4990699;28;20018;-76
2024/01/06 10:14:51;;;;;;;520.13;488.48;;;7.80;99.90;;;;;;4990699;28;20037;-76
2024/01/06 10:17:20;;;;;;;318.95;301.60;;;7.80;99.90;;;;;;4992869;28;20037;-76
2024/01/06 10:19:48;;;;;;;245.10;230.82;;;7.80;99.90;;;;;;4990683;28;20030;-76
2024/01/06 10:22:14;;;;;;;145.75;137.63;;;7.80;99.90;;;;;;4993033;28;20465;-76
2024/01/06 10:24:40;;;;;;;150.55;142.38;;;7.80;99.90;;;;;;4991354;28;20041;-75
2024/01/06 10:27:06;;;;;;;595.63;558.20;;;7.80;99.90;;;;;;4990584;28;20027;-76
2024/01/06 10:29:32;;;;;;;622.35;582.53;;;7.90;99.90;;;;;;4989380;28;20042;-76
2024/01/06 10:31:58;;;;;;;138.65;131.52;;;7.90;99.90;;;;;;4989656;28;20132;-76
2024/01/06 10:34:25;;;;;;;201.40;189.85;;;7.90;99.90;;;;;;4989605;28;20033;-76
2024/01/06 10:36:53;;;;;;;273.75;259.25;;;7.90;99.90;;;;;;4990026;28;20034;-72
2024/01/06 10:39:20;;;;;;;589.45;549.25;;;7.80;99.90;;;;;;4990676;28;20050;-73
2024/01/06 10:41:48;;;;;;;192.55;182.73;;;8.00;99.90;;;;;;4988625;28;20534;-76
2024/01/06 10:44:14;;;;;;;285.73;268.83;;;8.00;99.90;;;;;;4989586;28;20389;-76
2024/01/06 10:46:40;;;;;;;429.20;404.52;;;8.00;99.90;;;;;;4990680;28;20039;-76
2024/01/06 10:49:10;;;;;;;248.80;235.70;;;8.10;99.90;;;;;;4989244;28;20046;-76
2024/01/06 10:51:37;;;;;;;522.40;490.13;;;8.10;99.90;;;;;;4992357;28;20479;-75
2024/01/06 10:54:04;;;;;;;299.42;282.73;;;8.20;99.90;;;;;;4989533;28;20037;-75
2024/01/06 10:56:30;;;;;;;128.35;121.15;;;8.40;99.90;;;;;;4988721;28;20039;-75
2024/01/06 10:58:57;;;;;;;105.88;100.25;;;8.50;99.90;;;;;;4990803;28;20042;-74
2024/01/06 11:01:27;;;;;;;116.38;110.18;;;8.70;99.90;;;;;;4990226;28;20034;-75
2024/01/06 11:03:54;;;;;;;149.68;141.63;;;8.80;99.90;;;;;;4990138;28;20049;-75
2024/01/06 11:06:20;;;;;;;270.73;255.95;;;8.90;99.90;;;;;;4989436;28;20464;-75
2024/01/06 11:09:22;;;;;;;236.75;224.57;;;8.80;99.90;;;;;;4990444;28;20042;-75
2024/01/06 11:11:48;;;;;;;93.88;88.97;;;8.80;99.90;;;;;;4989555;28;20042;-74
2024/01/06 11:14:25;;;;;;;128.27;121.35;;;8.70;99.90;;;;;;4988586;28;20057;-75
2024/01/06 11:16:52;;;;;;;145.93;138.23;;;8.60;99.90;;;;;;4990344;27;20045;-74
2024/01/06 11:19:33;;;;;;;149.88;141.93;;;8.60;99.90;;;;;;4990570;28;20053;-74
2024/01/06 11:22:22;;;;;;;1999.90;999.90;;;8.70;99.90;;;;;;4994855;28;20038;-74
2024/01/06 11:24:49;;;;;;;1999.90;999.90;;;8.70;99.90;;;;;;4988647;28;20389;-73
2024/01/06 11:27:23;;;;;;;1999.90;999.90;;;8.80;99.90;;;;;;4987273;28;20521;-74
2024/01/06 11:29:54;;;;;;;1999.90;999.90;;;8.80;99.90;;;;;;5010251;28;20038;-73
2024/01/06 11:32:21;;;;;;;1999.90;999.90;;;8.80;99.90;;;;;;4986479;28;20101;-72
2024/01/06 11:34:54;;;;;;;1551.95;799.20;;;8.80;99.90;;;;;;4995140;28;20037;-72
2024/01/06 11:37:24;;;;;;;1999.90;999.90;;;9.10;99.90;;;;;;4989915;28;20030;-72
2024/01/06 11:39:50;;;;;;;1999.90;999.90;;;9.00;99.90;;;;;;4987948;28;20053;-73
2024/01/06 11:42:16;;;;;;;1999.90;999.90;;;9.00;99.90;;;;;;4988973;28;20049;-73
2024/01/06 11:44:50;;;;;;;1999.90;999.90;;;9.00;99.90;;;;;;4999299;28;20045;-73
2024/01/06 11:47:18;;;;;;;1999.90;999.90;;;9.10;99.90;;;;;;4988842;28;20083;-74
2024/01/06 11:49:47;;;;;;;1999.90;999.90;;;9.20;99.90;;;;;;4988997;28;20042;-74
2024/01/06 11:52:13;;;;;;;1999.90;999.90;;;9.20;99.90;;;;;;4987555;28;20050;-73
2024/01/06 11:54:39;;;;;;;1999.90;999.90;;;9.10;99.90;;;;;;4987857;28;20027;-73
2024/01/06 11:57:05;;;;;;;1999.90;999.90;;;9.10;99.90;;;;;;4987566;28;20037;-73
2024/01/06 11:59:31;;;;;;;1999.90;999.90;;;9.10;99.90;;;;;;4991263;28;20031;-73
2024/01/06 12:01:58;;;;;;;1999.90;999.90;;;9.10;99.90;;;;;;4988094;28;20031;-73
2024/01/06 12:04:25;;;;;;;1999.90;999.90;;;9.20;99.90;;;;;;4987356;28;20488;-73
2024/01/06 12:06:51;;;;;;;1999.90;999.90;;;9.20;99.90;;;;;;4987561;28;20032;-73
2024/01/06 12:09:19;;;;;;;1999.90;999.90;;;9.30;99.90;;;;;;4988118;28;20192;-73
2024/01/06 12:11:46;;;;;;;1999.90;999.90;;;9.50;99.90;;;;;;4989231;28;20085;-73
2024/01/06 12:14:13;;;;;;;1999.90;999.90;;;9.50;99.90;;;;;;4989131;28;20042;-73